createdAt,value
2017-08-15T00:00:29.474Z,0
2017-08-15T00:01:30.198Z,0
2017-08-15T00:02:30.919Z,0
2017-08-15T00:03:31.663Z,0
2017-08-15T00:04:32.385Z,0
2017-08-15T00:05:33.110Z,0
2017-08-15T00:06:33.831Z,0
2017-08-15T00:07:34.554Z,0
2017-08-15T00:08:35.277Z,0
2017-08-15T00:09:36.002Z,0
2017-08-15T00:10:36.727Z,0
2017-08-15T00:11:37.449Z,0
2017-08-15T00:12:38.170Z,0
2017-08-15T00:13:38.895Z,0
2017-08-15T00:14:39.619Z,0
2017-08-15T00:15:40.343Z,0
2017-08-15T00:16:41.094Z,0
2017-08-15T00:17:41.818Z,0
2017-08-15T00:18:42.540Z,0
2017-08-15T00:19:43.288Z,0
2017-08-15T00:20:44.010Z,0
2017-08-15T00:21:44.731Z,0
2017-08-15T00:22:45.453Z,0
2017-08-15T00:23:46.176Z,0
2017-08-15T00:24:46.900Z,0
2017-08-15T00:25:47.623Z,0
2017-08-15T00:26:48.348Z,0
2017-08-15T00:27:49.092Z,0
2017-08-15T00:28:49.816Z,0
2017-08-15T00:29:50.564Z,0
2017-08-15T00:30:51.311Z,0
2017-08-15T00:31:52.036Z,0
2017-08-15T00:32:52.782Z,0
2017-08-15T00:33:53.501Z,0
2017-08-15T00:34:54.222Z,0
2017-08-15T00:35:54.942Z,0
2017-08-15T00:36:55.667Z,0
2017-08-15T00:37:56.387Z,0
2017-08-15T00:38:57.130Z,0
2017-08-15T00:39:57.855Z,0
2017-08-15T00:40:58.580Z,0
2017-08-15T00:41:59.323Z,0
2017-08-15T00:43:00.049Z,0
2017-08-15T00:44:00.799Z,0
2017-08-15T00:45:01.520Z,0
2017-08-15T00:46:02.237Z,0
2017-08-15T00:47:02.959Z,0
2017-08-15T00:48:03.683Z,0
2017-08-15T00:49:04.408Z,0
2017-08-15T00:50:05.150Z,0
2017-08-15T00:51:05.875Z,0
2017-08-15T00:52:06.620Z,0
2017-08-15T00:53:07.339Z,0
2017-08-15T00:54:08.066Z,0
2017-08-15T00:55:08.788Z,0
2017-08-15T00:56:09.509Z,0
2017-08-15T00:57:10.254Z,0
2017-08-15T00:58:10.977Z,0
2017-08-15T00:59:11.704Z,0
2017-08-15T01:00:12.427Z,0
2017-08-15T01:01:13.163Z,0
2017-08-15T01:02:13.874Z,0
2017-08-15T01:03:14.599Z,0
2017-08-15T01:04:15.321Z,0
2017-08-15T01:05:16.047Z,0
2017-08-15T01:06:16.796Z,0
2017-08-15T01:07:17.492Z,0
2017-08-15T01:08:18.239Z,0
2017-08-15T01:09:18.964Z,0
2017-08-15T01:10:19.713Z,0
2017-08-15T01:11:20.438Z,0
2017-08-15T01:12:21.159Z,0
2017-08-15T01:13:21.884Z,0
2017-08-15T01:14:22.604Z,0
2017-08-15T01:15:23.328Z,0
2017-08-15T01:16:49.724Z,0
2017-08-15T01:17:50.472Z,0
2017-08-15T01:18:51.194Z,0
2017-08-15T01:19:51.919Z,0
2017-08-15T01:20:52.645Z,0
2017-08-15T01:21:53.393Z,0
2017-08-15T01:22:54.143Z,0
2017-08-15T01:23:54.864Z,0
2017-08-15T01:24:55.584Z,0
2017-08-15T01:25:56.308Z,0
2017-08-15T01:26:57.036Z,0
2017-08-15T01:27:57.762Z,0
2017-08-15T01:28:58.507Z,0
2017-08-15T01:29:59.233Z,0
2017-08-15T01:30:59.952Z,0
2017-08-15T01:32:00.678Z,0
2017-08-15T01:33:01.403Z,0
2017-08-15T01:34:02.148Z,0
2017-08-15T01:35:02.874Z,0
2017-08-15T01:36:03.600Z,0
2017-08-15T01:37:04.343Z,0
2017-08-15T01:38:05.071Z,0
2017-08-15T01:39:05.790Z,0
2017-08-15T01:40:06.511Z,0
2017-08-15T01:41:07.237Z,0
2017-08-15T01:42:07.980Z,0
2017-08-15T01:43:08.704Z,0
2017-08-15T01:44:09.424Z,0
2017-08-15T01:45:10.146Z,0
2017-08-15T01:46:10.869Z,0
2017-08-15T01:47:11.592Z,0
2017-08-15T01:48:12.340Z,0
2017-08-15T01:49:13.065Z,0
2017-08-15T01:50:13.788Z,0
2017-08-15T01:51:14.536Z,0
2017-08-15T01:52:15.257Z,0
2017-08-15T01:53:15.985Z,0
2017-08-15T01:54:16.706Z,0
2017-08-15T01:55:17.432Z,0
2017-08-15T01:56:18.159Z,0
2017-08-15T01:57:18.882Z,0
2017-08-15T01:58:19.603Z,0
2017-08-15T01:59:20.350Z,0
2017-08-15T02:00:21.072Z,0
2017-08-15T02:01:21.796Z,0
2017-08-15T02:02:22.518Z,0
2017-08-15T02:03:23.244Z,0
2017-08-15T02:04:23.985Z,0
2017-08-15T02:05:24.710Z,0
2017-08-15T02:06:25.434Z,0
2017-08-15T02:07:26.178Z,0
2017-08-15T02:08:26.902Z,0
2017-08-15T02:09:27.625Z,0
2017-08-15T02:10:28.353Z,0
2017-08-15T02:11:29.075Z,0
2017-08-15T02:12:29.821Z,0
2017-08-15T02:13:30.548Z,0
2017-08-15T02:14:31.271Z,0
2017-08-15T02:15:31.994Z,0
2017-08-15T02:16:32.745Z,0
2017-08-15T02:17:33.470Z,0
2017-08-15T02:18:34.218Z,0
2017-08-15T02:19:34.942Z,0
2017-08-15T02:20:35.665Z,0
2017-08-15T02:21:36.410Z,0
2017-08-15T02:22:37.133Z,0
2017-08-15T02:23:37.857Z,0
2017-08-15T02:24:38.585Z,0
2017-08-15T02:25:39.330Z,0
2017-08-15T02:26:40.053Z,0
2017-08-15T02:27:40.775Z,0
2017-08-15T02:28:41.501Z,0
2017-08-15T02:29:42.222Z,0
2017-08-15T02:30:42.946Z,0
2017-08-15T02:31:43.696Z,0
2017-08-15T02:32:44.424Z,0
2017-08-15T02:33:45.148Z,0
2017-08-15T02:34:45.868Z,0
2017-08-15T02:35:46.619Z,0
2017-08-15T02:36:47.341Z,0
2017-08-15T02:37:48.065Z,0
2017-08-15T02:38:48.786Z,0
2017-08-15T02:39:49.513Z,0
2017-08-15T02:40:50.260Z,0
2017-08-15T02:41:50.982Z,0
2017-08-15T02:42:51.703Z,0
2017-08-15T02:43:52.456Z,0
2017-08-15T02:44:53.177Z,0
2017-08-15T02:45:53.896Z,0
2017-08-15T02:46:54.619Z,0
2017-08-15T02:47:55.344Z,0
2017-08-15T02:48:56.088Z,0
2017-08-15T02:49:56.812Z,0
2017-08-15T02:50:57.536Z,0
2017-08-15T02:51:58.257Z,0
2017-08-15T02:52:58.985Z,0
2017-08-15T02:53:59.727Z,0
2017-08-15T02:55:00.450Z,0
2017-08-15T02:56:01.174Z,0
2017-08-15T02:57:01.898Z,0
2017-08-15T02:58:02.620Z,0
2017-08-15T02:59:03.347Z,0
2017-08-15T03:00:04.068Z,0
2017-08-15T03:01:04.814Z,0
2017-08-15T03:02:05.537Z,0
2017-08-15T03:03:06.259Z,0
2017-08-15T03:04:06.983Z,0
2017-08-15T03:05:07.709Z,0
2017-08-15T03:06:08.431Z,0
2017-08-15T03:07:09.159Z,0
2017-08-15T03:08:09.881Z,0
2017-08-15T03:09:10.628Z,0
2017-08-15T03:10:11.352Z,0
2017-08-15T03:11:12.076Z,0
2017-08-15T03:12:12.801Z,0
2017-08-15T03:13:13.521Z,0
2017-08-15T03:14:14.247Z,0
2017-08-15T03:15:14.966Z,0
2017-08-15T03:16:15.691Z,0
2017-08-15T03:17:16.413Z,0
2017-08-15T03:18:17.157Z,0
2017-08-15T03:19:17.887Z,0
2017-08-15T03:20:18.610Z,0
2017-08-15T03:21:19.332Z,0
2017-08-15T03:22:20.053Z,0
2017-08-15T03:23:20.802Z,0
2017-08-15T03:24:21.527Z,0
2017-08-15T03:25:22.250Z,0
2017-08-15T03:26:22.973Z,0
2017-08-15T03:27:23.698Z,0
2017-08-15T03:28:24.445Z,0
2017-08-15T03:29:25.187Z,0
2017-08-15T03:30:25.928Z,0
2017-08-15T03:31:26.652Z,0
2017-08-15T03:32:27.377Z,0
2017-08-15T03:33:28.101Z,0
2017-08-15T03:34:28.825Z,0
2017-08-15T03:35:29.566Z,0
2017-08-15T03:36:30.274Z,0
2017-08-15T03:37:30.996Z,0
2017-08-15T03:38:31.728Z,0
2017-08-15T03:39:32.441Z,0
2017-08-15T03:40:33.165Z,0
2017-08-15T03:41:33.908Z,0
2017-08-15T03:42:34.656Z,0
2017-08-15T03:43:35.379Z,0
2017-08-15T03:44:36.102Z,0
2017-08-15T03:45:36.848Z,0
2017-08-15T03:46:37.568Z,0
2017-08-15T03:47:38.292Z,0
2017-08-15T03:48:39.013Z,0
2017-08-15T03:49:39.739Z,0
2017-08-15T03:50:40.485Z,0
2017-08-15T03:51:41.210Z,0
2017-08-15T03:52:41.934Z,0
2017-08-15T03:53:42.659Z,0
2017-08-15T03:54:43.383Z,0
2017-08-15T03:55:44.106Z,0
2017-08-15T03:56:44.833Z,0
2017-08-15T03:57:45.581Z,0
2017-08-15T03:58:46.304Z,0
2017-08-15T03:59:47.033Z,0
2017-08-15T04:00:47.756Z,0
2017-08-15T04:01:48.502Z,0
2017-08-15T04:02:49.251Z,0
2017-08-15T04:03:49.977Z,0
2017-08-15T04:04:50.727Z,0
2017-08-15T04:05:51.452Z,0
2017-08-15T04:06:52.179Z,0
2017-08-15T04:07:52.922Z,0
2017-08-15T04:08:53.649Z,0
2017-08-15T04:09:54.395Z,0
2017-08-15T04:10:55.141Z,5
2017-08-15T04:11:55.888Z,5
2017-08-15T04:12:56.611Z,5
2017-08-15T04:13:57.340Z,5
2017-08-15T04:14:58.087Z,5
2017-08-15T04:15:58.818Z,5
2017-08-15T04:16:59.566Z,5
2017-08-15T04:18:00.315Z,5
2017-08-15T04:19:01.043Z,10
2017-08-15T04:20:01.772Z,10
2017-08-15T04:21:02.522Z,10
2017-08-15T04:22:03.276Z,10
2017-08-15T04:23:04.024Z,10
2017-08-15T04:24:04.769Z,10
2017-08-15T04:25:05.501Z,10
2017-08-15T04:26:06.227Z,15
2017-08-15T04:27:06.953Z,15
2017-08-15T04:28:07.681Z,15
2017-08-15T04:29:08.404Z,15
2017-08-15T04:30:09.133Z,15
2017-08-15T04:31:09.855Z,15
2017-08-15T04:32:10.587Z,20
2017-08-15T04:33:11.311Z,20
2017-08-15T04:34:12.059Z,20
2017-08-15T04:35:12.789Z,20
2017-08-15T04:36:13.518Z,20
2017-08-15T04:37:14.247Z,20
2017-08-15T04:38:14.975Z,20
2017-08-15T04:39:15.725Z,25
2017-08-15T04:40:16.453Z,25
2017-08-15T04:41:17.180Z,25
2017-08-15T04:42:17.907Z,30
2017-08-15T04:43:18.638Z,30
2017-08-15T04:44:19.387Z,30
2017-08-15T04:45:20.112Z,35
2017-08-15T04:46:20.840Z,35
2017-08-15T04:47:21.572Z,40
2017-08-15T04:48:22.322Z,40
2017-08-15T04:49:23.050Z,45
2017-08-15T04:50:23.777Z,45
2017-08-15T04:51:24.506Z,45
2017-08-15T04:52:25.237Z,45
2017-08-15T04:53:25.965Z,45
2017-08-15T04:54:26.696Z,45
2017-08-15T04:55:27.425Z,45
2017-08-15T04:56:28.154Z,45
2017-08-15T04:57:28.882Z,45
2017-08-15T04:58:29.608Z,50
2017-08-15T04:59:30.340Z,50
2017-08-15T05:00:31.071Z,50
2017-08-15T05:01:31.799Z,55
2017-08-15T05:02:32.551Z,55
2017-08-15T05:03:33.283Z,55
2017-08-15T05:04:34.011Z,60
2017-08-15T05:05:34.743Z,55
2017-08-15T05:06:35.494Z,60
2017-08-15T05:07:36.226Z,60
2017-08-15T05:08:36.952Z,60
2017-08-15T05:09:37.704Z,60
2017-08-15T05:10:38.435Z,65
2017-08-15T05:11:39.163Z,65
2017-08-15T05:12:39.894Z,65
2017-08-15T05:13:40.622Z,65
2017-08-15T05:14:41.350Z,70
2017-08-15T05:15:42.078Z,70
2017-08-15T05:16:42.806Z,70
2017-08-15T05:17:43.532Z,70
2017-08-15T05:18:44.258Z,70
2017-08-15T05:19:44.990Z,70
2017-08-15T05:20:45.719Z,70
2017-08-15T05:21:46.451Z,70
2017-08-15T05:22:47.204Z,75
2017-08-15T05:23:47.931Z,75
2017-08-15T05:24:48.660Z,75
2017-08-15T05:25:49.405Z,80
2017-08-15T05:26:50.135Z,80
2017-08-15T05:27:50.861Z,85
2017-08-15T05:28:51.587Z,85
2017-08-15T05:29:52.312Z,85
2017-08-15T05:30:53.042Z,85
2017-08-15T05:31:53.773Z,90
2017-08-15T05:32:54.499Z,90
2017-08-15T05:33:55.229Z,90
2017-08-15T05:34:55.954Z,90
2017-08-15T05:35:56.709Z,90
2017-08-15T05:36:57.432Z,90
2017-08-15T05:37:58.162Z,95
2017-08-15T05:38:58.889Z,95
2017-08-15T05:39:59.620Z,95
2017-08-15T05:41:00.349Z,95
2017-08-15T05:42:01.083Z,95
2017-08-15T05:43:01.830Z,100
2017-08-15T05:44:02.576Z,100
2017-08-15T05:45:03.309Z,100
2017-08-15T05:46:04.037Z,100
2017-08-15T05:47:04.788Z,100
2017-08-15T05:48:05.533Z,105
2017-08-15T05:49:06.248Z,105
2017-08-15T05:50:06.978Z,105
2017-08-15T05:51:07.731Z,110
2017-08-15T05:52:08.466Z,110
2017-08-15T05:53:09.189Z,110
2017-08-15T05:54:09.921Z,110
2017-08-15T05:55:10.649Z,115
2017-08-15T05:56:11.378Z,115
2017-08-15T05:57:12.109Z,120
2017-08-15T05:58:12.835Z,120
2017-08-15T05:59:13.564Z,120
2017-08-15T06:00:14.296Z,120
2017-08-15T06:01:15.021Z,120
2017-08-15T06:02:15.747Z,120
2017-08-15T06:03:16.473Z,125
2017-08-15T06:04:17.202Z,125
2017-08-15T06:05:17.931Z,130
2017-08-15T06:06:18.912Z,130
2017-08-15T06:07:19.636Z,135
2017-08-15T06:08:20.366Z,135
2017-08-15T06:09:21.096Z,140
2017-08-15T06:10:21.825Z,140
2017-08-15T06:11:22.558Z,150
2017-08-15T06:12:23.284Z,150
2017-08-15T06:13:24.018Z,150
2017-08-15T06:14:24.747Z,150
2017-08-15T06:15:25.474Z,155
2017-08-15T06:16:26.202Z,155
2017-08-15T06:17:26.932Z,160
2017-08-15T06:18:27.669Z,160
2017-08-15T06:19:28.389Z,160
2017-08-15T06:20:29.119Z,160
2017-08-15T06:21:29.870Z,160
2017-08-15T06:22:30.601Z,165
2017-08-15T06:23:31.331Z,165
2017-08-15T06:24:32.069Z,165
2017-08-15T06:25:32.792Z,170
2017-08-15T06:26:33.512Z,160
2017-08-15T06:27:34.260Z,165
2017-08-15T06:28:34.995Z,165
2017-08-15T06:29:35.721Z,165
2017-08-15T06:30:36.447Z,165
2017-08-15T06:31:37.201Z,170
2017-08-15T06:32:37.928Z,170
2017-08-15T06:33:38.662Z,175
2017-08-15T06:34:39.415Z,175
2017-08-15T06:35:40.149Z,175
2017-08-15T06:36:40.881Z,180
2017-08-15T06:37:41.638Z,180
2017-08-15T06:38:42.368Z,180
2017-08-15T06:39:43.098Z,185
2017-08-15T06:40:43.827Z,185
2017-08-15T06:41:44.577Z,185
2017-08-15T06:42:45.328Z,190
2017-08-15T06:43:46.083Z,180
2017-08-15T06:44:46.838Z,180
2017-08-15T06:45:47.574Z,175
2017-08-15T06:46:48.319Z,175
2017-08-15T06:47:49.055Z,170
2017-08-15T06:48:49.778Z,175
2017-08-15T06:49:50.513Z,180
2017-08-15T06:50:51.268Z,180
2017-08-15T06:51:52.019Z,190
2017-08-15T06:52:52.747Z,185
2017-08-15T06:53:53.480Z,210
2017-08-15T06:54:54.206Z,220
2017-08-15T06:55:54.960Z,240
2017-08-15T06:56:55.668Z,255
2017-08-15T06:57:56.398Z,275
2017-08-15T06:58:57.131Z,295
2017-08-15T06:59:57.893Z,315
2017-08-15T07:00:58.598Z,320
2017-08-15T07:01:59.331Z,330
2017-08-15T07:03:00.060Z,335
2017-08-15T07:04:00.818Z,335
2017-08-15T07:05:01.551Z,355
2017-08-15T07:06:02.280Z,365
2017-08-15T07:07:03.041Z,385
2017-08-15T07:08:03.774Z,400
2017-08-15T07:09:04.533Z,340
2017-08-15T07:10:05.272Z,350
2017-08-15T07:11:06.033Z,515
2017-08-15T07:12:06.774Z,775
2017-08-15T07:13:07.514Z,450
2017-08-15T07:14:08.250Z,430
2017-08-15T07:15:08.992Z,825
2017-08-15T07:16:09.729Z,760
2017-08-15T07:17:10.468Z,640
2017-08-15T07:18:11.230Z,385
2017-08-15T07:19:11.990Z,390
2017-08-15T07:20:12.733Z,325
2017-08-15T07:21:13.470Z,340
2017-08-15T07:22:14.212Z,405
2017-08-15T07:23:14.949Z,505
2017-08-15T07:24:15.688Z,385
2017-08-15T07:25:16.423Z,390
2017-08-15T07:26:17.159Z,405
2017-08-15T07:27:17.897Z,545
2017-08-15T07:28:18.632Z,540
2017-08-15T07:29:19.373Z,400
2017-08-15T07:30:20.109Z,405
2017-08-15T07:31:20.870Z,375
2017-08-15T07:32:21.628Z,460
2017-08-15T07:33:22.367Z,530
2017-08-15T07:34:23.106Z,460
2017-08-15T07:35:23.844Z,580
2017-08-15T07:36:24.582Z,680
2017-08-15T07:37:25.342Z,705
2017-08-15T07:38:26.083Z,725
2017-08-15T07:39:26.818Z,575
2017-08-15T07:40:27.555Z,585
2017-08-15T07:41:28.297Z,720
2017-08-15T07:42:29.062Z,720
2017-08-15T07:43:29.800Z,695
2017-08-15T07:44:30.562Z,650
2017-08-15T07:45:31.326Z,610
2017-08-15T07:46:32.065Z,615
2017-08-15T07:47:32.829Z,700
2017-08-15T07:48:33.566Z,790
2017-08-15T07:49:34.305Z,765
2017-08-15T07:50:35.039Z,820
2017-08-15T07:51:35.778Z,875
2017-08-15T07:52:36.508Z,840
2017-08-15T07:53:37.250Z,825
2017-08-15T07:54:37.988Z,785
2017-08-15T07:55:38.722Z,800
2017-08-15T07:56:39.463Z,810
2017-08-15T07:57:40.200Z,865
2017-08-15T07:58:40.963Z,855
2017-08-15T07:59:41.693Z,830
2017-08-15T08:00:42.434Z,810
2017-08-15T08:01:43.167Z,760
2017-08-15T08:02:43.908Z,700
2017-08-15T08:03:44.670Z,650
2017-08-15T08:04:45.432Z,705
2017-08-15T08:05:46.169Z,775
2017-08-15T08:06:46.906Z,860
2017-08-15T08:07:47.644Z,845
2017-08-15T08:08:48.400Z,860
2017-08-15T08:09:49.141Z,835
2017-08-15T08:10:49.878Z,835
2017-08-15T08:11:50.637Z,820
2017-08-15T08:12:51.403Z,820
2017-08-15T08:13:52.161Z,780
2017-08-15T08:14:52.901Z,885
2017-08-15T08:15:53.640Z,850
2017-08-15T08:16:54.375Z,905
2017-08-15T08:17:55.117Z,840
2017-08-15T08:18:55.850Z,850
2017-08-15T08:19:56.611Z,800
2017-08-15T08:20:57.347Z,955
2017-08-15T08:21:58.089Z,985
2017-08-15T08:22:58.826Z,1055
2017-08-15T08:23:59.571Z,1040
2017-08-15T08:25:00.307Z,1075
2017-08-15T08:26:01.044Z,1055
2017-08-15T08:27:01.783Z,1025
2017-08-15T08:28:02.531Z,970
2017-08-15T08:29:03.265Z,1075
2017-08-15T08:30:04.003Z,1015
2017-08-15T08:31:04.746Z,1050
2017-08-15T08:32:05.486Z,1065
2017-08-15T08:33:06.223Z,1120
2017-08-15T08:34:06.981Z,1175
2017-08-15T08:35:07.724Z,1220
2017-08-15T08:36:08.494Z,1140
2017-08-15T08:37:09.237Z,1190
2017-08-15T08:38:09.988Z,1120
2017-08-15T08:39:10.717Z,1200
2017-08-15T08:40:11.459Z,1120
2017-08-15T08:41:12.205Z,1075
2017-08-15T08:42:12.948Z,1010
2017-08-15T08:43:13.686Z,1105
2017-08-15T08:44:14.448Z,1015
2017-08-15T08:45:15.189Z,985
2017-08-15T08:46:15.929Z,955
2017-08-15T08:47:16.665Z,900
2017-08-15T08:48:17.425Z,610
2017-08-15T08:49:18.163Z,565
2017-08-15T08:50:18.923Z,485
2017-08-15T08:51:19.662Z,480
2017-08-15T08:52:20.401Z,450
2017-08-15T08:53:21.139Z,430
2017-08-15T08:54:21.876Z,415
2017-08-15T08:55:22.635Z,465
2017-08-15T08:56:23.375Z,365
2017-08-15T08:57:24.110Z,340
2017-08-15T08:58:24.852Z,315
2017-08-15T08:59:25.610Z,300
2017-08-15T09:00:26.350Z,295
2017-08-15T09:01:27.084Z,290
2017-08-15T09:02:27.846Z,285
2017-08-15T09:03:28.581Z,280
2017-08-15T09:04:29.317Z,285
2017-08-15T09:05:30.053Z,290
2017-08-15T09:06:30.788Z,300
2017-08-15T09:07:31.526Z,315
2017-08-15T09:08:32.261Z,330
2017-08-15T09:09:33.022Z,340
2017-08-15T09:10:33.759Z,355
2017-08-15T09:11:34.496Z,375
2017-08-15T09:12:35.256Z,385
2017-08-15T09:13:36.014Z,420
2017-08-15T09:14:36.745Z,440
2017-08-15T09:15:37.483Z,445
2017-08-15T09:16:38.221Z,425
2017-08-15T09:17:38.976Z,420
2017-08-15T09:18:39.715Z,445
2017-08-15T09:19:40.454Z,430
2017-08-15T09:20:41.212Z,435
2017-08-15T09:21:41.947Z,455
2017-08-15T09:22:42.705Z,520
2017-08-15T09:23:43.442Z,475
2017-08-15T09:24:44.176Z,480
2017-08-15T09:25:44.916Z,525
2017-08-15T09:26:45.648Z,555
2017-08-15T09:27:46.388Z,580
2017-08-15T09:28:47.120Z,605
2017-08-15T09:29:47.879Z,595
2017-08-15T09:30:48.615Z,620
2017-08-15T09:31:49.352Z,620
2017-08-15T09:32:50.089Z,635
2017-08-15T09:33:50.824Z,640
2017-08-15T09:34:51.586Z,645
2017-08-15T09:35:52.323Z,650
2017-08-15T09:36:53.062Z,640
2017-08-15T09:37:53.798Z,610
2017-08-15T09:38:54.559Z,585
2017-08-15T09:39:55.297Z,560
2017-08-15T09:40:56.036Z,530
2017-08-15T09:41:56.774Z,530
2017-08-15T09:42:57.511Z,515
2017-08-15T09:43:58.247Z,495
2017-08-15T09:44:58.985Z,500
2017-08-15T09:45:59.748Z,490
2017-08-15T09:47:00.481Z,500
2017-08-15T09:48:01.215Z,505
2017-08-15T09:49:01.979Z,495
2017-08-15T09:50:02.710Z,485
2017-08-15T09:51:03.474Z,490
2017-08-15T09:52:04.204Z,485
2017-08-15T09:53:04.942Z,480
2017-08-15T09:54:05.702Z,485
2017-08-15T09:55:06.433Z,480
2017-08-15T09:56:07.166Z,475
2017-08-15T09:57:07.901Z,480
2017-08-15T09:58:08.637Z,480
2017-08-15T09:59:09.375Z,470
2017-08-15T10:00:10.137Z,460
2017-08-15T10:01:10.874Z,455
2017-08-15T10:02:11.612Z,455
2017-08-15T10:03:12.374Z,455
2017-08-15T10:04:13.109Z,460
2017-08-15T10:05:13.844Z,450
2017-08-15T10:06:14.577Z,440
2017-08-15T10:07:15.319Z,430
2017-08-15T10:08:16.080Z,430
2017-08-15T10:09:16.814Z,425
2017-08-15T10:10:17.552Z,420
2017-08-15T10:11:18.292Z,420
2017-08-15T10:12:19.029Z,420
2017-08-15T10:13:19.763Z,425
2017-08-15T10:14:20.497Z,420
2017-08-15T10:15:21.234Z,420
2017-08-15T10:16:21.995Z,410
2017-08-15T10:17:22.728Z,410
2017-08-15T10:18:23.464Z,410
2017-08-15T10:19:24.216Z,410
2017-08-15T10:20:24.958Z,405
2017-08-15T10:21:25.717Z,410
2017-08-15T10:22:26.455Z,410
2017-08-15T10:23:27.191Z,405
2017-08-15T10:24:27.924Z,395
2017-08-15T10:25:28.684Z,390
2017-08-15T10:26:29.440Z,380
2017-08-15T10:27:30.158Z,370
2017-08-15T10:28:30.892Z,365
2017-08-15T10:29:31.631Z,365
2017-08-15T10:30:32.385Z,360
2017-08-15T10:31:33.122Z,355
2017-08-15T10:32:33.860Z,350
2017-08-15T10:33:34.620Z,345
2017-08-15T10:34:35.357Z,340
2017-08-15T10:35:36.089Z,325
2017-08-15T10:36:36.827Z,305
2017-08-15T10:37:37.564Z,285
2017-08-15T10:38:38.333Z,260
2017-08-15T10:39:39.079Z,245
2017-08-15T10:40:39.813Z,235
2017-08-15T10:41:40.570Z,230
2017-08-15T10:42:41.301Z,220
2017-08-15T10:43:42.034Z,210
2017-08-15T10:44:42.764Z,195
2017-08-15T10:45:43.524Z,185
2017-08-15T10:46:44.259Z,180
2017-08-15T10:47:44.995Z,175
2017-08-15T10:48:45.731Z,170
2017-08-15T10:49:46.471Z,165
2017-08-15T10:50:47.205Z,165
2017-08-15T10:51:47.968Z,170
2017-08-15T10:52:48.723Z,180
2017-08-15T10:53:49.460Z,180
2017-08-15T10:54:50.193Z,190
2017-08-15T10:55:50.954Z,215
2017-08-15T10:56:51.690Z,235
2017-08-15T10:57:52.427Z,255
2017-08-15T10:58:53.165Z,280
2017-08-15T10:59:53.901Z,300
2017-08-15T11:00:54.638Z,315
2017-08-15T11:01:55.376Z,330
2017-08-15T11:02:56.112Z,340
2017-08-15T11:03:56.848Z,360
2017-08-15T11:04:57.604Z,385
2017-08-15T11:05:58.366Z,415
2017-08-15T11:06:59.108Z,450
2017-08-15T11:07:59.849Z,480
2017-08-15T11:09:00.580Z,505
2017-08-15T11:10:01.320Z,530
2017-08-15T11:11:02.057Z,620
2017-08-15T11:12:02.822Z,725
2017-08-15T11:13:03.580Z,745
2017-08-15T11:14:04.339Z,750
2017-08-15T11:15:05.079Z,655
2017-08-15T11:16:05.817Z,625
2017-08-15T11:17:06.553Z,695
2017-08-15T11:18:07.287Z,745
2017-08-15T11:19:08.027Z,775
2017-08-15T11:20:08.766Z,775
2017-08-15T11:21:09.509Z,650
2017-08-15T11:22:10.247Z,535
2017-08-15T11:23:10.980Z,495
2017-08-15T11:24:11.717Z,480
2017-08-15T11:25:12.454Z,460
2017-08-15T11:26:13.193Z,455
2017-08-15T11:27:13.928Z,460
2017-08-15T11:28:14.685Z,475
2017-08-15T11:29:15.423Z,490
2017-08-15T11:30:16.161Z,475
2017-08-15T11:31:16.897Z,475
2017-08-15T11:32:17.656Z,495
2017-08-15T11:33:18.395Z,490
2017-08-15T11:34:19.137Z,485
2017-08-15T11:35:19.868Z,520
2017-08-15T11:36:20.603Z,535
2017-08-15T11:37:21.341Z,580
2017-08-15T11:38:22.080Z,590
2017-08-15T11:39:22.842Z,580
2017-08-15T11:40:23.606Z,580
2017-08-15T11:41:24.342Z,595
2017-08-15T11:42:25.081Z,760
2017-08-15T11:43:25.816Z,660
2017-08-15T11:44:26.550Z,505
2017-08-15T11:45:27.283Z,470
2017-08-15T11:46:28.041Z,450
2017-08-15T11:47:28.798Z,450
2017-08-15T11:48:29.537Z,445
2017-08-15T11:49:30.271Z,445
2017-08-15T11:50:31.030Z,445
2017-08-15T11:51:31.771Z,460
2017-08-15T11:52:32.530Z,545
2017-08-15T11:53:33.269Z,525
2017-08-15T11:54:34.003Z,500
2017-08-15T11:55:34.735Z,575
2017-08-15T11:56:35.470Z,600
2017-08-15T11:57:36.207Z,555
2017-08-15T11:58:36.965Z,575
2017-08-15T11:59:37.701Z,540
2017-08-15T12:00:38.441Z,550
2017-08-15T12:01:39.179Z,655
2017-08-15T12:02:39.937Z,530
2017-08-15T12:03:40.670Z,520
2017-08-15T12:04:41.428Z,520
2017-08-15T12:05:42.164Z,565
2017-08-15T12:06:42.902Z,555
2017-08-15T12:07:43.662Z,545
2017-08-15T12:08:44.398Z,595
2017-08-15T12:09:45.132Z,750
2017-08-15T12:10:45.889Z,1155
2017-08-15T12:11:46.628Z,1625
2017-08-15T12:12:47.367Z,1855
2017-08-15T12:13:48.101Z,1580
2017-08-15T12:14:48.844Z,1815
2017-08-15T12:15:49.581Z,2175
2017-08-15T12:16:50.322Z,2235
2017-08-15T12:17:51.083Z,2295
2017-08-15T12:18:51.822Z,2455
2017-08-15T12:19:52.567Z,2545
2017-08-15T12:20:53.338Z,2515
2017-08-15T12:21:54.099Z,1160
2017-08-15T12:22:54.841Z,2260
2017-08-15T12:23:55.582Z,2040
2017-08-15T12:24:56.324Z,1965
2017-08-15T12:25:57.066Z,2010
2017-08-15T12:26:57.834Z,1745
2017-08-15T12:27:58.581Z,2190
2017-08-15T12:28:59.327Z,2255
2017-08-15T12:30:00.071Z,2155
2017-08-15T12:31:00.825Z,1990
2017-08-15T12:32:01.577Z,1780
2017-08-15T12:33:02.332Z,1805
2017-08-15T12:34:03.080Z,1500
2017-08-15T12:35:03.830Z,1795
2017-08-15T12:36:04.583Z,2000
2017-08-15T12:37:05.334Z,2145
2017-08-15T12:38:06.090Z,2110
2017-08-15T12:39:06.837Z,2185
2017-08-15T12:40:07.608Z,2170
2017-08-15T12:41:08.359Z,2095
2017-08-15T12:42:09.105Z,2140
2017-08-15T12:43:09.883Z,2140
2017-08-15T12:44:10.631Z,2135
2017-08-15T12:45:11.376Z,2200
2017-08-15T12:46:12.129Z,2135
2017-08-15T12:47:12.878Z,2095
2017-08-15T12:48:13.627Z,2060
2017-08-15T12:49:14.374Z,2060
2017-08-15T12:50:15.129Z,1980
2017-08-15T12:51:15.876Z,1845
2017-08-15T12:52:16.624Z,1880
2017-08-15T12:53:17.406Z,1885
2017-08-15T12:54:18.130Z,1770
2017-08-15T12:55:18.878Z,1750
2017-08-15T12:56:19.648Z,1845
2017-08-15T12:57:20.397Z,1845
2017-08-15T12:58:21.148Z,1815
2017-08-15T12:59:21.900Z,1830
2017-08-15T13:00:22.646Z,1885
2017-08-15T13:01:23.397Z,1900
2017-08-15T13:02:24.144Z,1890
2017-08-15T13:03:24.895Z,1975
2017-08-15T13:04:25.648Z,2030
2017-08-15T13:05:26.396Z,2205
2017-08-15T13:06:27.149Z,2270
2017-08-15T13:07:27.902Z,2250
2017-08-15T13:08:28.675Z,2105
2017-08-15T13:09:29.449Z,1945
2017-08-15T13:10:30.197Z,1895
2017-08-15T13:11:30.950Z,2115
2017-08-15T13:12:31.704Z,2250
2017-08-15T13:13:32.454Z,2295
2017-08-15T13:14:33.203Z,2365
2017-08-15T13:15:33.953Z,590
2017-08-15T13:16:34.702Z,630
2017-08-15T13:17:35.454Z,760
2017-08-15T13:18:36.199Z,650
2017-08-15T13:19:36.945Z,965
2017-08-15T13:20:37.693Z,1270
2017-08-15T13:21:38.444Z,2170
2017-08-15T13:22:39.213Z,2075
2017-08-15T13:23:39.966Z,2130
2017-08-15T13:24:40.712Z,2195
2017-08-15T13:25:41.463Z,1215
2017-08-15T13:26:42.236Z,1845
2017-08-15T13:27:43.014Z,1025
2017-08-15T13:28:43.769Z,2370
2017-08-15T13:29:44.537Z,1310
2017-08-15T13:30:45.285Z,725
2017-08-15T13:31:46.036Z,1295
2017-08-15T13:32:46.806Z,1915
2017-08-15T13:33:47.579Z,2205
2017-08-15T13:34:48.329Z,2120
2017-08-15T13:35:49.077Z,1165
2017-08-15T13:36:49.829Z,1980
2017-08-15T13:37:50.603Z,1975
2017-08-15T13:38:51.359Z,2145
2017-08-15T13:39:52.104Z,2040
2017-08-15T13:40:52.856Z,2025
2017-08-15T13:41:53.633Z,2070
2017-08-15T13:42:54.385Z,1975
2017-08-15T13:43:55.133Z,1670
2017-08-15T13:44:55.884Z,1785
2017-08-15T13:45:56.637Z,2110
2017-08-15T13:46:57.398Z,2045
2017-08-15T13:47:58.160Z,1810
2017-08-15T13:48:58.910Z,2250
2017-08-15T13:49:59.659Z,1980
2017-08-15T13:51:00.435Z,425
2017-08-15T13:52:01.185Z,380
2017-08-15T13:53:01.961Z,350
2017-08-15T13:54:02.706Z,325
2017-08-15T13:55:03.470Z,325
2017-08-15T13:56:04.237Z,375
2017-08-15T13:57:04.980Z,370
2017-08-15T13:58:05.718Z,390
2017-08-15T13:59:06.457Z,395
2017-08-15T14:00:07.195Z,390
2017-08-15T14:01:07.936Z,365
2017-08-15T14:02:08.674Z,340
2017-08-15T14:03:09.420Z,340
2017-08-15T14:04:10.152Z,345
2017-08-15T14:05:10.888Z,380
2017-08-15T14:06:11.652Z,445
2017-08-15T14:07:12.391Z,450
2017-08-15T14:08:13.154Z,435
2017-08-15T14:09:13.893Z,415
2017-08-15T14:10:14.627Z,395
2017-08-15T14:11:15.365Z,365
2017-08-15T14:12:16.127Z,340
2017-08-15T14:13:16.890Z,320